Time;durP1;ratioP1;P1;durP2;ratioP2;P2;SDS_P1;SDS_P2;PMS_P1;PMS_P2;Temp;Humidity;BMP_temperature;BMP_pressure;BME280_temperature;BME280_humidity;BME280_pressure;Samples;Min_cycle;Max_cycle;Signal;HPM_P1;HPM_P2
2022/08/05 00:00:41;;;;;;;8.10;6.10;;;;;;;23.41;49.78;94786.63;4169532;28;20087;-70
2022/08/05 00:02:49;;;;;;;8.75;5.75;;;;;;;23.31;49.48;94774.66;4163524;28;20049;-70
2022/08/05 00:04:55;;;;;;;6.75;4.63;;;;;;;23.07;49.39;94776.56;4161590;28;20409;-70
2022/08/05 00:06:58;;;;;;;8.80;4.78;;;;;;;22.89;49.40;94777.50;4161568;28;20121;-69
2022/08/05 00:09:00;;;;;;;9.77;4.97;;;;;;;22.80;49.88;94775.41;4161993;28;20087;-70
2022/08/05 00:11:05;;;;;;;5.93;4.70;;;;;;;22.70;50.05;94773.34;4162072;28;20508;-70
2022/08/05 00:13:24;;;;;;;7.22;4.28;;;;;;;22.73;50.48;94774.72;4159666;28;20758;-70
2022/08/05 00:15:41;;;;;;;7.13;4.50;;;;;;;22.82;50.10;94771.47;4174139;28;20494;-68
2022/08/05 00:17:57;;;;;;;6.20;4.43;;;;;;;22.86;50.28;94777.94;4161985;28;20123;-70
2022/08/05 00:20:03;;;;;;;6.40;4.70;;;;;;;22.89;50.27;94771.34;4160711;28;20141;-71
2022/08/05 00:22:08;;;;;;;6.65;5.10;;;;;;;22.90;49.61;94771.09;4173136;28;20092;-71
2022/08/05 00:24:12;;;;;;;5.15;4.45;;;;;;;22.88;49.83;94767.03;4172496;28;20486;-69
2022/08/05 00:26:20;;;;;;;8.98;4.53;;;;;;;22.93;49.58;94769.00;4174879;28;20053;-69
2022/08/05 00:28:23;;;;;;;7.03;4.50;;;;;;;22.97;48.95;94759.47;4175809;28;20052;-69
2022/08/05 00:30:30;;;;;;;5.68;4.20;;;;;;;23.04;49.41;94765.56;4176894;28;20041;-68
2022/08/05 00:32:33;;;;;;;8.77;4.25;;;;;;;23.05;49.23;94770.66;4172572;28;20480;-70
2022/08/05 00:34:36;;;;;;;6.13;4.10;;;;;;;23.05;48.82;94761.84;4170908;28;20045;-70
2022/08/05 00:36:58;;;;;;;5.05;3.97;;;;;;;23.04;48.78;94755.69;4171983;28;20060;-68
2022/08/05 00:39:14;;;;;;;5.90;4.43;;;;;;;23.04;48.85;94755.69;4163608;28;20403;-68
2022/08/05 00:41:31;;;;;;;7.47;4.37;;;;;;;23.03;48.89;94753.22;4175588;28;20053;-68
2022/08/05 00:43:52;;;;;;;8.02;4.43;;;;;;;23.01;48.73;94758.81;4175518;28;20045;-69
2022/08/05 00:45:54;;;;;;;5.75;4.32;;;;;;;22.96;48.51;94752.53;4176573;28;20076;-70
2022/08/05 00:47:56;;;;;;;8.57;4.57;;;;;;;22.88;48.82;94754.50;4176820;28;20048;-69
2022/08/05 00:50:07;;;;;;;6.50;4.35;;;;;;;22.85;49.01;94759.50;4159597;28;20068;-70
2022/08/05 00:52:09;;;;;;;;;;;;;;;22.79;49.34;94753.22;4176192;28;20060;-70
2022/08/05 00:54:12;;;;;;;5.40;4.30;;;;;;;22.78;49.26;94761.47;4176142;28;20091;-69
2022/08/05 00:56:15;;;;;;;6.80;4.43;;;;;;;22.79;49.44;94753.22;4157586;28;20060;-71
2022/08/05 00:58:23;;;;;;;7.38;4.78;;;;;;;22.77;49.12;94758.00;4148158;28;20045;-71
2022/08/05 01:00:29;;;;;;;6.50;5.15;;;;;;;22.72;49.56;94752.56;4176448;28;20049;-71
2022/08/05 01:02:32;;;;;;;6.68;4.47;;;;;;;22.55;49.39;94759.66;4166419;28;20088;-66
2022/08/05 01:04:34;;;;;;;9.25;5.47;;;;;;;22.29;50.31;94764.38;4176354;28;20586;-69
2022/08/05 01:06:36;;;;;;;8.48;4.57;;;;;;;22.23;50.53;94757.28;4158912;28;20489;-70
2022/08/05 01:08:39;;;;;;;7.90;5.30;;;;;;;22.22;50.70;94758.28;4162624;28;20175;-70
2022/08/05 01:10:53;;;;;;;6.25;4.90;;;;;;;22.23;50.77;94749.28;4160279;28;20148;-71
2022/08/05 01:13:07;;;;;;;7.93;4.93;;;;;;;22.25;50.57;94750.69;4159622;28;20453;-69
2022/08/05 01:15:28;;;;;;;6.10;4.88;;;;;;;22.27;50.11;94756.59;4145094;28;20088;-71
2022/08/05 01:17:42;;;;;;;6.35;5.07;;;;;;;22.24;50.27;94764.25;4185483;28;20104;-70
2022/08/05 01:19:46;;;;;;;7.43;5.68;;;;;;;22.22;50.76;94763.63;4188417;28;20123;-70
2022/08/05 01:22:40;;;;;;;7.13;4.85;;;;;;;22.19;50.63;94756.09;4158577;28;20053;-71
2022/08/05 01:25:06;;;;;;;6.65;5.22;;;;;;;22.20;50.53;94763.03;4172264;28;20048;-71
2022/08/05 01:27:36;;;;;;;6.07;4.95;;;;;;;22.25;50.65;94763.22;4169512;28;20128;-71
2022/08/05 01:29:58;;;;;;;6.00;4.90;;;;;;;22.28;50.87;94760.91;4160333;28;20053;-71
2022/08/05 01:32:02;;;;;;;8.82;5.43;;;;;;;22.30;50.21;94755.31;4144881;28;20092;-69
2022/08/05 01:34:59;;;;;;;6.22;4.85;;;;;;;22.28;50.60;94768.91;4147028;28;20520;-70
2022/08/05 01:39:56;;;;;;;6.35;4.93;;;;;;;22.07;50.60;94761.41;4172860;28;20071;-70
2022/08/05 01:42:01;;;;;;;6.38;4.93;;;;;;;22.06;50.78;94760.59;4173379;28;20092;-70
2022/08/05 01:44:05;;;;;;;;;;;;;;;22.06;50.87;94760.59;4145521;28;20129;-69
2022/08/05 01:46:10;;;;;;;10.55;5.28;;;;;;;21.98;51.05;94757.44;4163408;28;19921;-70
2022/08/05 01:48:38;;;;;;;6.78;5.18;;;;;;;21.85;51.31;94753.13;4176174;28;20057;-68
2022/08/05 01:50:42;;;;;;;7.78;5.15;;;;;;;21.75;52.12;94763.53;4157897;28;20370;-70
2022/08/05 01:52:53;;;;;;;11.57;5.40;;;;;;;21.65;52.42;94772.88;4163109;28;20068;-69
2022/08/05 01:54:57;;;;;;;;;;;;;;;21.64;52.40;94773.94;4157189;28;20049;-71
2022/08/05 01:57:07;;;;;;;9.95;5.80;;;;;;;21.65;52.74;94767.53;4158606;28;19940;-70
2022/08/05 01:59:30;;;;;;;9.20;5.25;;;;;;;21.67;53.06;94773.47;4157940;28;20041;-69
2022/08/05 02:01:33;;;;;;;6.65;5.95;;;;;;;21.65;53.14;94770.22;4149159;28;20431;-69
2022/08/05 02:03:44;;;;;;;10.00;5.50;;;;;;;21.63;53.15;94766.97;4147264;28;20050;-68
2022/08/05 02:05:46;;;;;;;9.07;5.63;;;;;;;21.66;53.01;94768.34;4140476;28;20133;-69
2022/08/05 02:07:49;;;;;;;6.90;5.30;;;;;;;21.70;53.06;94771.38;4174749;28;20550;-69
2022/08/05 02:10:03;;;;;;;7.40;5.13;;;;;;;21.72;52.91;94766.63;4159632;28;20049;-70
2022/08/05 02:12:18;;;;;;;6.43;5.38;;;;;;;21.71;52.86;94760.50;4159753;28;20152;-69
2022/08/05 02:14:29;;;;;;;6.88;5.25;;;;;;;21.75;52.96;94763.53;4159871;28;20140;-69
2022/08/05 02:16:45;;;;;;;6.60;5.32;;;;;;;21.79;52.66;94767.34;4142285;28;20148;-69
2022/08/05 02:19:11;;;;;;;7.03;5.60;;;;;;;21.81;52.94;94763.44;4166583;28;20128;-69
2022/08/05 02:21:24;;;;;;;7.57;5.40;;;;;;;21.83;52.75;94765.84;4160191;28;20545;-69
2022/08/05 02:23:30;;;;;;;12.65;5.60;;;;;;;21.80;52.28;94761.81;4147341;28;20170;-69
2022/08/05 02:25:39;;;;;;;6.97;5.20;;;;;;;21.81;52.63;94757.28;4168191;28;20052;-69
2022/08/05 02:27:52;;;;;;;7.25;4.70;;;;;;;21.80;52.44;94764.47;4142566;28;20120;-69
2022/08/05 02:30:01;;;;;;;6.88;5.28;;;;;;;21.78;52.14;94761.22;4166512;28;20056;-69
2022/08/05 02:32:07;;;;;;;8.50;5.35;;;;;;;21.79;52.05;94770.84;4157643;28;20053;-71
2022/08/05 02:34:12;;;;;;;6.53;5.05;;;;;;;21.83;52.18;94755.19;4155061;28;20045;-70
2022/08/05 02:36:17;;;;;;;9.82;5.45;;;;;;;21.88;52.04;94764.16;4147199;28;20057;-70
2022/08/05 02:38:19;;;;;;;13.27;5.60;;;;;;;21.88;52.29;94760.69;4153291;28;20053;-70
2022/08/05 02:40:28;;;;;;;7.10;5.30;;;;;;;21.84;52.09;94762.97;4145609;28;20389;-69
2022/08/05 02:42:31;;;;;;;9.07;5.13;;;;;;;21.81;52.25;94758.09;4172903;28;20057;-69
2022/08/05 02:44:37;;;;;;;7.05;4.93;;;;;;;21.77;51.98;94764.94;4148091;28;20049;-68
2022/08/05 02:46:42;;;;;;;7.60;5.75;;;;;;;21.77;51.86;94764.94;4159103;28;20053;-70
2022/08/05 02:48:55;;;;;;;9.52;5.45;;;;;;;21.70;52.28;94764.19;4171890;28;20064;-69
2022/08/05 02:51:00;;;;;;;7.47;5.28;;;;;;;21.64;52.10;94757.94;4158624;28;20381;-70
2022/08/05 02:53:02;;;;;;;6.82;5.15;;;;;;;21.63;52.17;94753.63;4150057;28;20057;-69
2022/08/05 02:55:04;;;;;;;6.88;4.88;;;;;;;21.63;52.14;94764.28;4161066;28;20100;-69
2022/08/05 02:57:17;;;;;;;7.35;4.80;;;;;;;21.64;51.69;94752.59;4142411;28;20085;-68
2022/08/05 02:59:43;;;;;;;5.63;4.78;;;;;;;21.63;51.55;94761.63;4159407;28;20049;-69
2022/08/05 03:01:57;;;;;;;7.32;5.40;;;;;;;21.56;52.11;94755.56;4171984;28;20084;-68
2022/08/05 03:04:00;;;;;;;7.47;5.80;;;;;;;21.40;52.34;94756.16;4148732;28;20045;-68
2022/08/05 03:06:13;;;;;;;6.68;4.65;;;;;;;21.09;53.13;94757.19;4163174;28;20060;-69
2022/08/05 03:08:37;;;;;;;10.50;5.18;;;;;;;20.97;53.63;94755.25;4151915;28;20045;-67
2022/08/05 03:10:44;;;;;;;8.27;4.78;;;;;;;21.06;53.21;94758.44;4168376;28;20115;-68
2022/08/05 03:13:12;;;;;;;6.75;5.32;;;;;;;21.12;53.18;94754.84;4153859;28;20100;-68
2022/08/05 03:15:19;;;;;;;6.20;4.88;;;;;;;21.19;53.00;94760.94;4178387;28;20440;-68
2022/08/05 03:17:24;;;;;;;6.15;4.78;;;;;;;21.18;53.01;94759.31;4150115;28;20093;-67
2022/08/05 03:19:30;;;;;;;6.07;4.68;;;;;;;21.19;53.06;94762.81;4159072;28;20499;-68
2022/08/05 03:21:36;;;;;;;6.57;4.82;;;;;;;21.21;52.96;94766.06;4172562;28;20045;-67
2022/08/05 03:23:50;;;;;;;5.63;4.63;;;;;;;21.27;52.75;94762.47;4163172;28;20085;-67
2022/08/05 03:25:52;;;;;;;6.45;4.90;;;;;;;21.25;52.61;94762.72;4164052;28;20095;-68
2022/08/05 03:28:14;;;;;;;6.95;4.97;;;;;;;21.25;52.43;94762.72;4171200;28;20050;-69
2022/08/05 03:30:21;;;;;;;9.57;5.05;;;;;;;21.19;52.39;94760.94;4146217;28;20053;-68
2022/08/05 03:32:35;;;;;;;4.97;4.18;;;;;;;21.11;52.50;94755.91;4158560;28;20061;-69
2022/08/05 03:34:37;;;;;;;7.40;5.18;;;;;;;21.06;52.47;94761.09;4169566;28;20088;-67
2022/08/05 03:36:40;;;;;;;8.63;4.93;;;;;;;20.87;52.69;94757.63;4150090;28;20058;-68
2022/08/05 03:38:42;;;;;;;10.57;4.70;;;;;;;20.78;53.11;94761.59;4163384;28;20057;-68
2022/08/05 03:40:54;;;;;;;12.65;5.00;;;;;;;20.54;54.23;94765.91;4153349;28;20141;-67
2022/08/05 03:42:59;;;;;;;6.00;5.00;;;;;;;20.56;54.12;94763.84;4171531;28;20132;-68
2022/08/05 03:45:20;;;;;;;7.22;5.40;;;;;;;20.64;54.07;94766.25;4155043;28;20045;-69
2022/08/05 03:47:24;;;;;;;7.97;5.05;;;;;;;20.74;54.13;94769.22;4159558;28;20757;-68
2022/08/05 03:49:31;;;;;;;8.05;5.32;;;;;;;20.82;53.81;94766.28;4160629;28;20288;-68
2022/08/05 03:51:57;;;;;;;10.07;5.75;;;;;;;20.87;53.90;94765.59;4176034;28;20288;-68
2022/08/05 03:54:37;;;;;;;8.00;5.45;;;;;;;20.78;54.09;94765.09;4168114;28;20376;-67
2022/08/05 03:57:01;;;;;;;9.38;5.13;;;;;;;20.83;54.05;94769.75;4177393;28;20527;-69
2022/08/05 03:59:39;;;;;;;6.57;5.63;;;;;;;20.86;54.16;94759.47;4161540;28;20472;-68
2022/08/05 04:01:56;;;;;;;8.23;6.15;;;;;;;20.92;53.93;94764.94;4159340;28;20168;-68
2022/08/05 04:04:00;;;;;;;8.40;7.20;;;;;;;21.00;53.92;94765.47;4159961;28;20050;-68
2022/08/05 04:06:11;;;;;;;7.25;6.55;;;;;;;20.96;53.91;94766.13;4176318;28;20088;-67
2022/08/05 04:08:14;;;;;;;12.02;6.60;;;;;;;20.92;54.03;94760.41;4158718;28;20520;-67
2022/08/05 04:10:36;;;;;;;9.85;6.32;;;;;;;20.81;54.37;94759.31;4175711;28;20126;-69
2022/08/05 04:12:38;;;;;;;7.15;6.40;;;;;;;20.74;54.47;94769.22;4176306;28;20071;-68
2022/08/05 04:14:40;;;;;;;10.57;6.50;;;;;;;20.66;54.89;94766.84;4175264;28;20062;-67
2022/08/05 04:16:44;;;;;;;9.20;5.95;;;;;;;20.76;54.49;94772.47;4176233;28;20067;-70
2022/08/05 04:18:46;;;;;;;9.88;6.40;;;;;;;20.86;54.00;94770.13;4177714;28;20118;-67
2022/08/05 04:20:58;;;;;;;10.10;6.28;;;;;;;20.78;54.10;94769.56;4160150;28;20219;-68
2022/08/05 04:23:00;;;;;;;8.38;6.35;;;;;;;20.80;53.98;94762.19;4181515;28;20116;-69
2022/08/05 04:25:02;;;;;;;7.25;5.88;;;;;;;20.92;53.63;94762.28;4169355;28;20053;-70
2022/08/05 04:27:04;;;;;;;11.32;5.97;;;;;;;21.16;53.03;94763.22;4176585;28;20132;-68
2022/08/05 04:29:07;;;;;;;;;;;;;;;21.24;52.65;94761.06;4178251;28;20130;-68
2022/08/05 04:31:09;;;;;;;6.43;5.82;;;;;;;21.24;52.33;94755.75;4176123;28;19974;-69
2022/08/05 04:33:13;;;;;;;7.97;6.20;;;;;;;21.33;52.17;94756.25;4158847;28;20425;-68
2022/08/05 04:35:15;;;;;;;6.78;5.80;;;;;;;21.41;51.78;94757.81;4176846;28;20652;-67
2022/08/05 04:37:18;;;;;;;10.30;5.22;;;;;;;21.49;51.37;94762.84;4175411;28;20080;-67
2022/08/05 04:39:23;;;;;;;5.28;4.70;;;;;;;21.57;50.85;94762.53;4176365;28;20120;-69
2022/08/05 04:41:31;;;;;;;10.93;5.68;;;;;;;21.44;50.90;94760.03;4170491;28;20069;-69
2022/08/05 04:43:39;;;;;;;6.90;4.85;;;;;;;21.19;51.69;94760.13;4176486;28;20057;-68
2022/08/05 04:45:53;;;;;;;7.43;5.40;;;;;;;21.06;52.05;94759.25;4163548;28;20053;-67
2022/08/05 04:48:10;;;;;;;7.80;5.20;;;;;;;21.01;52.11;94755.63;4184614;28;20053;-69
2022/08/05 04:50:28;;;;;;;8.82;5.15;;;;;;;21.01;52.32;94751.09;4160989;28;20140;-68
2022/08/05 04:52:50;;;;;;;7.60;5.80;;;;;;;20.94;52.83;94762.88;4161302;28;20072;-67
2022/08/05 04:54:52;;;;;;;14.00;6.63;;;;;;;20.90;52.99;94753.69;4175339;28;20068;-69
2022/08/05 04:56:57;;;;;;;10.27;5.65;;;;;;;20.96;53.01;94758.13;4175728;28;20064;-68
2022/08/05 04:59:00;;;;;;;10.23;5.97;;;;;;;21.10;52.65;94759.63;4176132;28;20519;-69
2022/08/05 05:01:22;;;;;;;10.98;6.15;;;;;;;21.22;52.32;94757.81;4171203;28;21289;-69
2022/08/05 05:03:44;;;;;;;9.02;6.32;;;;;;;21.33;52.02;94758.91;4164700;28;20053;-68
2022/08/05 05:05:46;;;;;;;18.08;6.75;;;;;;;21.48;51.94;94755.88;4158579;28;20049;-69
2022/08/05 05:08:09;;;;;;;9.20;6.20;;;;;;;21.68;51.83;94760.94;4174570;28;20122;-67
2022/08/05 05:10:32;;;;;;;12.15;5.97;;;;;;;21.91;50.98;94764.72;4175028;28;20555;-69
2022/08/05 05:12:34;;;;;;;7.95;5.93;;;;;;;22.08;50.58;94753.16;4176086;28;20131;-68
2022/08/05 05:14:37;;;;;;;25.52;18.60;;;;;;;22.19;50.00;94758.75;4174885;28;20065;-69
2022/08/05 05:16:50;;;;;;;9.18;6.63;;;;;;;22.25;49.99;94748.00;4175469;28;20346;-69
2022/08/05 05:18:55;;;;;;;10.40;6.25;;;;;;;22.34;49.89;94758.34;4175709;28;20056;-69
2022/08/05 05:21:17;;;;;;;9.85;6.70;;;;;;;22.49;49.37;94750.69;4175483;28;20106;-70
2022/08/05 05:23:19;;;;;;;9.43;6.10;;;;;;;22.61;49.19;94748.03;4175150;28;20455;-70
2022/08/05 05:25:21;;;;;;;12.00;5.95;;;;;;;22.70;49.25;94754.66;4156665;28;20109;-67
2022/08/05 05:27:34;;;;;;;14.35;6.82;;;;;;;22.84;48.77;94753.38;4175743;28;20180;-68
2022/08/05 05:29:46;;;;;;;13.13;6.80;;;;;;;22.84;48.73;94750.69;4158765;28;20121;-69
2022/08/05 05:32:05;;;;;;;8.93;5.43;;;;;;;22.91;48.93;94747.91;4175603;28;20067;-68
2022/08/05 05:34:13;;;;;;;9.88;6.25;;;;;;;22.92;48.86;94748.69;4175876;28;20052;-67
2022/08/05 05:36:17;;;;;;;;;;;;;;;22.91;48.84;94747.91;4158894;28;20276;-68
2022/08/05 05:38:20;;;;;;;7.07;6.38;;;;;;;22.90;48.91;94749.72;4157684;28;19921;-68
2022/08/05 05:40:29;;;;;;;8.88;6.32;;;;;;;22.84;48.73;94748.03;4156806;28;20570;-67
2022/08/05 05:42:32;;;;;;;9.13;6.65;;;;;;;22.72;49.00;94747.22;4173770;28;20149;-69
2022/08/05 05:44:35;;;;;;;8.32;6.53;;;;;;;22.73;49.27;94750.69;4175333;28;20053;-71
2022/08/05 05:46:46;;;;;;;7.57;5.88;;;;;;;22.79;48.86;94744.41;4154676;28;20049;-68
2022/08/05 05:48:48;;;;;;;14.85;6.68;;;;;;;22.77;48.62;94754.53;4175596;28;20052;-68
2022/08/05 05:50:51;;;;;;;7.63;6.00;;;;;;;22.72;48.83;94754.41;4170794;28;20052;-70
2022/08/05 05:52:53;;;;;;;8.52;6.22;;;;;;;22.82;48.97;94746.59;4159202;28;20085;-69
2022/08/05 05:54:58;;;;;;;13.05;6.72;;;;;;;22.78;48.69;94751.63;4170618;28;20056;-70
2022/08/05 05:57:02;;;;;;;8.15;6.55;;;;;;;22.83;49.24;94751.72;4159816;28;20132;-67
2022/08/05 05:59:14;;;;;;;10.32;6.28;;;;;;;22.78;49.42;94756.13;4166432;28;20072;-68
2022/08/05 06:01:16;;;;;;;10.95;5.88;;;;;;;22.76;48.92;94752.88;4175459;28;20331;-68
2022/08/05 06:03:23;;;;;;;10.45;5.97;;;;;;;22.89;48.14;94763.34;4175001;28;20053;-69
2022/08/05 06:05:45;;;;;;;7.38;5.68;;;;;;;22.80;47.89;94757.53;4175167;28;20490;-70
2022/08/05 06:07:54;;;;;;;6.78;5.15;;;;;;;22.74;48.29;94749.66;4174122;28;20060;-68
2022/08/05 06:10:04;;;;;;;13.27;6.32;;;;;;;22.72;48.35;94763.25;4156378;28;20050;-68
2022/08/05 06:12:11;;;;;;;15.13;6.13;;;;;;;22.75;48.40;94762.75;4174300;28;20048;-68
2022/08/05 06:14:16;;;;;;;7.22;5.50;;;;;;;22.69;47.96;94753.00;4175692;28;20108;-70
2022/08/05 06:16:19;;;;;;;9.40;5.47;;;;;;;22.82;47.88;94757.28;4172870;28;20048;-68
2022/08/05 06:18:32;;;;;;;11.73;5.50;;;;;;;22.84;47.51;94766.72;4174344;28;20057;-69
2022/08/05 06:20:39;;;;;;;10.77;6.45;;;;;;;22.81;47.98;94764.50;4174178;28;20049;-70
2022/08/05 06:22:48;;;;;;;10.43;6.10;;;;;;;22.87;47.70;94760.91;4156095;28;20056;-70
2022/08/05 06:24:51;;;;;;;11.23;5.87;;;;;;;23.03;47.95;94764.72;4173624;28;20559;-70
2022/08/05 06:26:53;;;;;;;9.13;6.32;;;;;;;23.22;47.06;94752.03;4157824;28;20060;-69
2022/08/05 06:28:58;;;;;;;6.88;5.45;;;;;;;23.47;46.75;94758.94;4146947;28;20068;-70
2022/08/05 06:31:04;;;;;;;9.75;6.20;;;;;;;23.43;46.45;94760.47;4161991;28;20045;-69
2022/08/05 06:33:18;;;;;;;11.07;6.47;;;;;;;23.48;46.56;94761.34;4144329;28;20053;-69
2022/08/05 06:35:40;;;;;;;199.45;37.78;;;;;;;23.63;46.49;94755.50;4173161;28;20049;-69
2022/08/05 06:38:02;;;;;;;16.20;7.13;;;;;;;23.77;46.92;94760.56;4174222;28;20057;-68
2022/08/05 06:40:12;;;;;;;9.73;6.75;;;;;;;23.89;46.92;94758.66;4162965;28;20585;-69
2022/08/05 06:42:19;;;;;;;14.05;7.03;;;;;;;24.10;46.71;94757.16;4173212;28;20421;-67
2022/08/05 06:44:21;;;;;;;13.70;5.72;;;;;;;24.27;46.04;94757.16;4171532;28;20059;-71
2022/08/05 06:46:23;;;;;;;8.93;5.70;;;;;;;24.19;45.49;94755.69;4170977;28;20121;-69
2022/08/05 06:48:33;;;;;;;7.28;5.82;;;;;;;23.96;46.55;94753.97;4162260;28;20187;-68
2022/08/05 06:50:57;;;;;;;11.40;6.35;;;;;;;24.08;46.55;94754.72;4162969;28;20045;-68
2022/08/05 06:53:00;;;;;;;10.23;6.82;;;;;;;24.26;45.83;94752.84;4161884;28;20057;-68
2022/08/05 06:55:12;;;;;;;8.50;6.43;;;;;;;24.48;45.76;94752.97;4161726;28;20045;-70
2022/08/05 06:57:17;;;;;;;7.47;6.50;;;;;;;24.67;45.96;94750.84;4148749;28;20065;-67
2022/08/05 06:59:39;;;;;;;13.88;8.75;;;;;;;24.89;44.95;94748.22;4178863;28;21004;-71
2022/08/05 07:01:48;;;;;;;14.48;7.05;;;;;;;25.01;44.72;94748.09;4145758;28;20409;-69
2022/08/05 07:03:53;;;;;;;10.70;7.07;;;;;;;24.72;44.89;94750.94;4162011;28;20052;-68
2022/08/05 07:05:55;;;;;;;12.20;7.20;;;;;;;24.26;45.59;94744.81;4161581;28;20057;-68
2022/08/05 07:07:57;;;;;;;7.55;6.80;;;;;;;24.15;45.99;94749.19;4173702;28;20443;-72
2022/08/05 07:10:00;;;;;;;9.07;6.80;;;;;;;24.21;45.84;94753.59;4171458;28;20577;-68
2022/08/05 07:12:04;;;;;;;14.55;6.72;;;;;;;24.37;45.72;94745.78;4174902;28;20071;-69
2022/08/05 07:16:50;;;;;;;7.53;6.32;;;;;;;24.85;44.56;94755.94;4174767;28;20041;-68
2022/08/05 07:19:12;;;;;;;7.70;6.13;;;;;;;25.14;44.27;94755.75;4170138;28;20060;-68
2022/08/05 07:21:34;;;;;;;7.97;6.20;;;;;;;25.31;43.52;94751.19;4164400;28;20049;-70
2022/08/05 07:23:56;;;;;;;8.25;6.20;;;;;;;25.42;42.60;94754.00;4169152;28;20061;-69
2022/08/05 07:26:03;;;;;;;9.50;6.68;;;;;;;25.39;42.93;94751.81;4141419;28;20069;-70
2022/08/05 07:28:05;;;;;;;9.73;6.30;;;;;;;25.52;42.86;94754.09;4160090;28;20077;-73
2022/08/05 07:30:12;;;;;;;10.77;6.50;;;;;;;25.70;42.69;94753.75;4164565;28;20065;-70
2022/08/05 07:32:28;;;;;;;8.55;6.43;;;;;;;25.91;42.06;94754.00;4175829;28;20049;-68
2022/08/05 07:34:31;;;;;;;7.72;6.25;;;;;;;26.06;41.67;94754.16;4176203;28;20049;-69
2022/08/05 07:36:33;;;;;;;8.30;5.78;;;;;;;26.17;41.47;94751.56;4177938;28;20071;-68
2022/08/05 07:38:35;;;;;;;10.35;6.15;;;;;;;26.31;41.11;94748.19;4176689;28;20061;-71
2022/08/05 07:40:44;;;;;;;9.90;5.53;;;;;;;26.44;40.91;94751.53;4164347;28;20117;-70
2022/08/05 07:42:56;;;;;;;8.55;5.93;;;;;;;26.52;40.68;94746.47;4175889;28;20135;-68
2022/08/05 07:44:59;;;;;;;;;;;;;;;26.53;40.31;94747.28;4173377;28;20071;-68
2022/08/05 07:47:01;;;;;;;9.93;6.15;;;;;;;26.57;40.20;94740.38;4176514;28;19951;-67
2022/08/05 07:49:08;;;;;;;8.57;6.05;;;;;;;26.44;40.21;94746.94;4168110;28;20484;-71
2022/08/05 07:51:11;;;;;;;9.23;5.50;;;;;;;26.46;40.63;94750.19;4171255;28;20096;-67
2022/08/05 07:53:35;;;;;;;9.30;5.85;;;;;;;26.49;40.26;94744.28;4174197;28;20106;-68
2022/08/05 07:55:50;;;;;;;8.90;6.03;;;;;;;26.67;40.24;94747.66;4151980;28;20123;-69
2022/08/05 07:58:12;;;;;;;8.98;5.68;;;;;;;26.78;40.09;94744.00;4176348;28;20086;-69
2022/08/05 08:00:34;;;;;;;6.85;5.70;;;;;;;26.94;39.94;94745.69;4151715;28;20053;-69
2022/08/05 08:02:37;;;;;;;10.35;6.15;;;;;;;27.07;39.40;94741.72;4165575;28;20054;-68
2022/08/05 08:04:59;;;;;;;10.45;6.13;;;;;;;27.14;38.92;94744.16;4164604;28;20487;-70
2022/08/05 08:07:01;;;;;;;9.55;5.60;;;;;;;27.19;39.12;94744.22;4149998;28;20052;-69
2022/08/05 08:09:08;;;;;;;6.97;5.50;;;;;;;27.25;38.48;94745.06;4169445;28;20053;-69
2022/08/05 08:11:10;;;;;;;8.05;5.88;;;;;;;27.31;39.02;94736.75;4165386;28;20057;-69
2022/08/05 08:13:16;;;;;;;7.43;5.07;;;;;;;27.45;38.63;94733.56;4165984;28;20269;-67
2022/08/05 08:15:30;;;;;;;6.20;5.15;;;;;;;27.56;38.47;94741.41;4164610;28;20068;-67
2022/08/05 08:17:52;;;;;;;6.55;4.80;;;;;;;27.69;38.46;94742.00;4173769;28;20320;-67
2022/08/05 08:19:53;;;;;;;5.93;4.93;;;;;;;27.70;37.59;94739.03;4168000;28;20072;-69
2022/08/05 08:22:15;;;;;;;7.88;4.82;;;;;;;27.70;37.29;94739.03;4175322;28;20460;-69
2022/08/05 08:24:17;;;;;;;7.90;5.18;;;;;;;27.47;37.63;94742.19;4171248;28;20118;-68
2022/08/05 08:26:21;;;;;;;7.65;5.25;;;;;;;27.52;38.39;94734.94;4167253;28;20306;-70
2022/08/05 08:28:29;;;;;;;7.05;4.95;;;;;;;27.43;37.44;94741.13;4153305;28;20362;-68
2022/08/05 08:30:38;;;;;;;5.72;4.82;;;;;;;27.37;37.23;94740.28;4175810;28;20060;-70
2022/08/05 08:32:48;;;;;;;8.27;4.35;;;;;;;27.41;36.90;94736.00;4164626;28;20053;-70
2022/08/05 08:34:51;;;;;;;7.40;4.22;;;;;;;27.37;37.02;94729.50;4170636;28;20117;-68
2022/08/05 08:36:57;;;;;;;7.78;4.72;;;;;;;27.42;37.07;94736.78;4164229;28;20049;-68
2022/08/05 08:39:06;;;;;;;10.55;4.65;;;;;;;27.63;37.04;94729.59;4164045;28;20084;-68
2022/08/05 08:41:17;;;;;;;10.05;4.70;;;;;;;27.89;36.74;94733.97;4173963;28;20435;-67
2022/08/05 08:43:20;;;;;;;5.75;4.28;;;;;;;28.10;36.32;94729.44;4159700;28;20060;-69
2022/08/05 08:45:42;;;;;;;7.88;4.32;;;;;;;28.24;35.92;94727.00;4158483;28;20056;-68
2022/08/05 08:47:45;;;;;;;9.63;4.25;;;;;;;28.14;36.16;94732.41;4160927;28;20096;-70
2022/08/05 08:50:11;;;;;;;6.95;4.50;;;;;;;28.27;35.85;94734.56;4136289;28;20057;-70
2022/08/05 08:52:34;;;;;;;9.65;4.25;;;;;;;28.51;35.44;94728.66;4164877;28;20048;-70
2022/08/05 08:54:38;;;;;;;9.38;4.75;;;;;;;28.68;34.90;94733.75;4158810;28;20053;-69
2022/08/05 08:56:42;;;;;;;13.23;5.30;;;;;;;28.88;34.50;94724.81;4158890;28;20052;-71
2022/08/05 08:58:50;;;;;;;33.30;9.43;;;;;;;29.01;34.41;94726.94;4160366;28;20045;-71
2022/08/05 09:00:53;;;;;;;16.35;6.22;;;;;;;29.11;34.27;94729.63;4142716;28;20127;-69
2022/08/05 09:02:56;;;;;;;12.35;4.82;;;;;;;29.19;34.08;94723.69;4142798;28;20262;-68
2022/08/05 09:04:59;;;;;;;5.35;4.38;;;;;;;29.14;33.80;94712.88;4161615;28;20046;-69
2022/08/05 09:07:22;;;;;;;7.60;3.97;;;;;;;29.15;33.70;94719.91;4159798;28;20053;-70
2022/08/05 09:09:43;;;;;;;4.38;3.50;;;;;;;29.11;32.58;94720.75;4148775;28;20125;-72
2022/08/05 09:11:45;;;;;;;4.57;3.45;;;;;;;28.77;33.28;94715.94;4148013;28;20476;-68
2022/08/05 09:13:54;;;;;;;8.02;4.38;;;;;;;28.64;33.63;94721.91;4176833;28;20049;-69
2022/08/05 09:16:15;;;;;;;6.32;4.28;;;;;;;28.77;32.88;94713.25;4148345;28;20049;-70
2022/08/05 09:18:17;;;;;;;4.43;3.20;;;;;;;28.72;32.69;94699.78;4147556;28;20432;-67
2022/08/05 09:20:20;;;;;;;7.93;3.80;;;;;;;28.94;32.70;94699.47;4168293;28;20057;-70
2022/08/05 09:23:16;;;;;;;7.47;4.50;;;;;;;29.23;32.93;94694.25;4132924;28;20438;-68
2022/08/05 09:25:20;;;;;;;8.55;4.10;;;;;;;29.23;33.21;94693.44;4160684;28;20420;-70
2022/08/05 09:27:42;;;;;;;6.03;4.60;;;;;;;29.37;32.74;94684.47;4174786;28;20048;-69
2022/08/05 09:30:05;;;;;;;4.38;3.47;;;;;;;29.47;31.54;94680.94;4154057;28;20053;-69
2022/08/05 09:32:09;;;;;;;4.13;3.30;;;;;;;29.69;31.04;94688.66;4173009;28;20127;-68
2022/08/05 09:34:53;;;;;;;4.40;3.15;;;;;;;29.93;30.23;94687.97;4166458;28;20061;-67
2022/08/05 09:36:55;;;;;;;4.03;2.50;;;;;;;30.06;30.04;94694.63;4174689;28;20141;-71
2022/08/05 09:39:06;;;;;;;3.95;2.67;;;;;;;30.07;29.99;94682.72;4174499;28;20435;-71
2022/08/05 09:41:22;;;;;;;8.27;3.15;;;;;;;30.20;30.26;94682.06;4175130;28;20068;-69
2022/08/05 09:43:29;;;;;;;3.90;3.10;;;;;;;30.19;30.27;94669.66;4176521;28;20420;-70
2022/08/05 09:45:43;;;;;;;5.97;2.88;;;;;;;30.26;30.40;94677.44;4166322;28;20057;-69
2022/08/05 09:48:24;;;;;;;8.00;2.70;;;;;;;30.46;29.98;94677.28;4165715;28;20461;-69
2022/08/05 09:50:36;;;;;;;5.68;2.78;;;;;;;30.61;29.12;94674.44;4161455;28;20737;-69
2022/08/05 09:52:47;;;;;;;5.85;2.80;;;;;;;29.96;30.13;94671.19;4152196;28;20046;-70
2022/08/05 09:55:09;;;;;;;7.03;3.05;;;;;;;29.86;30.45;94669.38;4170420;28;20363;-68
2022/08/05 09:57:40;;;;;;;6.15;2.95;;;;;;;29.91;30.46;94663.94;4160018;28;20412;-68
2022/08/05 09:59:46;;;;;;;5.07;2.85;;;;;;;29.73;30.60;94668.09;4170823;28;20468;-70
2022/08/05 10:01:51;;;;;;;5.90;3.17;;;;;;;29.43;30.96;94665.53;4175851;28;20450;-69
2022/08/05 10:04:07;;;;;;;4.07;3.03;;;;;;;29.32;31.01;94662.94;4175653;28;20041;-70
2022/08/05 10:06:11;;;;;;;6.70;2.95;;;;;;;29.31;31.29;94663.19;4176932;28;20087;-68
2022/08/05 10:08:23;;;;;;;5.63;3.28;;;;;;;29.59;30.74;94661.69;4157356;28;20064;-68
2022/08/05 10:10:47;;;;;;;6.80;3.10;;;;;;;29.74;29.71;94658.91;4162561;28;20057;-69
2022/08/05 10:12:58;;;;;;;4.78;3.35;;;;;;;29.71;30.15;94653.28;4175430;28;20048;-68
2022/08/05 10:15:30;;;;;;;4.57;2.85;;;;;;;29.77;29.97;94658.38;4177307;28;20041;-67
2022/08/05 10:17:35;;;;;;;5.10;3.08;;;;;;;29.76;30.12;94645.94;4157659;28;20537;-68
2022/08/05 10:19:41;;;;;;;4.57;3.08;;;;;;;29.68;30.37;94654.59;4174781;28;20128;-69